sensor_id;sensor_type;location;lat;lon;timestamp;temperature;humidity
54192;DHT22;40101;53.002;6.488;2023-08-20T00:01:21;16.30;99.90
54192;DHT22;40101;53.002;6.488;2023-08-20T00:03:51;16.30;99.90
54192;DHT22;40101;53.002;6.488;2023-08-20T00:06:17;16.20;99.90
54192;DHT22;40101;53.002;6.488;2023-08-20T00:08:51;16.20;99.90
54192;DHT22;40101;53.002;6.488;2023-08-20T00:11:19;16.10;99.90
54192;DHT22;40101;53.002;6.488;2023-08-20T00:13:48;15.90;99.90
54192;DHT22;40101;53.002;6.488;2023-08-20T00:16:14;16.00;99.90
54192;DHT22;40101;53.002;6.488;2023-08-20T00:18:42;16.00;99.90
54192;DHT22;40101;53.002;6.488;2023-08-20T00:21:11;16.00;99.90
54192;DHT22;40101;53.002;6.488;2023-08-20T00:23:37;16.00;99.90
54192;DHT22;40101;53.002;6.488;2023-08-20T00:26:03;16.00;99.90
54192;DHT22;40101;53.002;6.488;2023-08-20T00:28:53;16.00;99.90
54192;DHT22;40101;53.002;6.488;2023-08-20T00:31:42;16.00;99.90
54192;DHT22;40101;53.002;6.488;2023-08-20T00:34:10;16.50;99.90
54192;DHT22;40101;53.002;6.488;2023-08-20T00:36:39;16.00;99.90
54192;DHT22;40101;53.002;6.488;2023-08-20T00:39:14;16.00;99.90
54192;DHT22;40101;53.002;6.488;2023-08-20T00:41:45;15.80;99.90
54192;DHT22;40101;53.002;6.488;2023-08-20T00:44:11;16.30;99.90
54192;DHT22;40101;53.002;6.488;2023-08-20T00:46:42;16.00;99.90
54192;DHT22;40101;53.002;6.488;2023-08-20T00:49:08;15.50;99.90
54192;DHT22;40101;53.002;6.488;2023-08-20T00:51:34;15.80;99.90
54192;DHT22;40101;53.002;6.488;2023-08-20T00:54:01;16.00;99.90
54192;DHT22;40101;53.002;6.488;2023-08-20T00:56:31;15.70;99.90
54192;DHT22;40101;53.002;6.488;2023-08-20T00:58:57;15.60;99.90
54192;DHT22;40101;53.002;6.488;2023-08-20T01:01:23;15.60;99.90
54192;DHT22;40101;53.002;6.488;2023-08-20T01:03:49;15.60;99.90
54192;DHT22;40101;53.002;6.488;2023-08-20T01:09:22;15.60;99.90
54192;DHT22;40101;53.002;6.488;2023-08-20T01:11:56;15.50;99.90
54192;DHT22;40101;53.002;6.488;2023-08-20T01:14:23;16.20;99.90
54192;DHT22;40101;53.002;6.488;2023-08-20T01:16:49;15.40;99.90
54192;DHT22;40101;53.002;6.488;2023-08-20T01:19:17;15.50;99.90
54192;DHT22;40101;53.002;6.488;2023-08-20T01:24:54;15.30;99.90
54192;DHT22;40101;53.002;6.488;2023-08-20T01:30:09;15.60;99.90
54192;DHT22;40101;53.002;6.488;2023-08-20T01:32:36;15.40;99.90
54192;DHT22;40101;53.002;6.488;2023-08-20T01:35:02;15.50;99.90
54192;DHT22;40101;53.002;6.488;2023-08-20T01:37:28;15.50;99.90
54192;DHT22;40101;53.002;6.488;2023-08-20T01:39:54;15.40;99.90
54192;DHT22;40101;53.002;6.488;2023-08-20T01:42:20;15.50;99.90
54192;DHT22;40101;53.002;6.488;2023-08-20T01:44:46;15.40;99.90
54192;DHT22;40101;53.002;6.488;2023-08-20T01:47:11;15.50;99.90
54192;DHT22;40101;53.002;6.488;2023-08-20T01:49:40;15.90;99.90
54192;DHT22;40101;53.002;6.488;2023-08-20T01:52:05;15.40;99.90
54192;DHT22;40101;53.002;6.488;2023-08-20T01:54:31;15.40;99.90
54192;DHT22;40101;53.002;6.488;2023-08-20T01:56:57;15.40;99.90
54192;DHT22;40101;53.002;6.488;2023-08-20T01:59:22;15.40;99.90
54192;DHT22;40101;53.002;6.488;2023-08-20T02:01:49;15.40;99.90
54192;DHT22;40101;53.002;6.488;2023-08-20T02:04:18;15.40;99.90
54192;DHT22;40101;53.002;6.488;2023-08-20T02:06:43;15.40;99.90
54192;DHT22;40101;53.002;6.488;2023-08-20T02:09:09;15.30;99.90
54192;DHT22;40101;53.002;6.488;2023-08-20T02:11:36;15.30;99.90
54192;DHT22;40101;53.002;6.488;2023-08-20T02:14:02;15.20;99.90
54192;DHT22;40101;53.002;6.488;2023-08-20T02:16:28;15.30;99.90
54192;DHT22;40101;53.002;6.488;2023-08-20T02:18:54;15.40;99.90
54192;DHT22;40101;53.002;6.488;2023-08-20T02:21:20;15.40;99.90
54192;DHT22;40101;53.002;6.488;2023-08-20T02:23:45;15.40;99.90
54192;DHT22;40101;53.002;6.488;2023-08-20T02:26:11;15.90;99.90
54192;DHT22;40101;53.002;6.488;2023-08-20T02:28:37;15.40;99.90
54192;DHT22;40101;53.002;6.488;2023-08-20T02:31:06;15.40;99.90
54192;DHT22;40101;53.002;6.488;2023-08-20T02:33:31;15.30;99.90
54192;DHT22;40101;53.002;6.488;2023-08-20T02:36:04;15.40;99.90
54192;DHT22;40101;53.002;6.488;2023-08-20T02:38:30;15.30;99.90
54192;DHT22;40101;53.002;6.488;2023-08-20T02:40:56;15.40;99.90
54192;DHT22;40101;53.002;6.488;2023-08-20T02:43:22;15.40;99.90
54192;DHT22;40101;53.002;6.488;2023-08-20T02:45:47;15.30;99.90
54192;DHT22;40101;53.002;6.488;2023-08-20T02:48:13;15.30;99.90
54192;DHT22;40101;53.002;6.488;2023-08-20T02:50:39;15.30;99.90
54192;DHT22;40101;53.002;6.488;2023-08-20T02:53:05;15.30;99.90
54192;DHT22;40101;53.002;6.488;2023-08-20T02:55:32;15.30;99.90
54192;DHT22;40101;53.002;6.488;2023-08-20T02:57:58;15.30;99.90
54192;DHT22;40101;53.002;6.488;2023-08-20T03:00:24;15.30;99.90
54192;DHT22;40101;53.002;6.488;2023-08-20T03:02:50;15.30;99.90
54192;DHT22;40101;53.002;6.488;2023-08-20T03:05:15;15.50;99.90
54192;DHT22;40101;53.002;6.488;2023-08-20T03:07:41;15.20;99.90
54192;DHT22;40101;53.002;6.488;2023-08-20T03:10:07;15.20;99.90
54192;DHT22;40101;53.002;6.488;2023-08-20T03:12:32;15.20;99.90
54192;DHT22;40101;53.002;6.488;2023-08-20T03:14:59;15.40;99.90
54192;DHT22;40101;53.002;6.488;2023-08-20T03:17:25;15.50;99.90
54192;DHT22;40101;53.002;6.488;2023-08-20T03:19:56;15.10;99.90
54192;DHT22;40101;53.002;6.488;2023-08-20T03:22:22;15.50;99.90
54192;DHT22;40101;53.002;6.488;2023-08-20T03:24:48;15.10;99.90
54192;DHT22;40101;53.002;6.488;2023-08-20T03:27:14;15.10;99.90
54192;DHT22;40101;53.002;6.488;2023-08-20T03:29:40;15.30;99.90
54192;DHT22;40101;53.002;6.488;2023-08-20T03:32:05;15.10;99.90
54192;DHT22;40101;53.002;6.488;2023-08-20T03:34:31;15.00;99.90
54192;DHT22;40101;53.002;6.488;2023-08-20T03:36:57;15.00;99.90
54192;DHT22;40101;53.002;6.488;2023-08-20T03:39:22;14.90;99.90
54192;DHT22;40101;53.002;6.488;2023-08-20T03:41:50;14.90;99.90
54192;DHT22;40101;53.002;6.488;2023-08-20T03:44:16;14.80;99.90
54192;DHT22;40101;53.002;6.488;2023-08-20T03:46:41;15.00;99.90
54192;DHT22;40101;53.002;6.488;2023-08-20T03:49:07;14.80;99.90
54192;DHT22;40101;53.002;6.488;2023-08-20T03:51:33;14.70;99.90
54192;DHT22;40101;53.002;6.488;2023-08-20T03:53:58;14.70;99.90
54192;DHT22;40101;53.002;6.488;2023-08-20T03:56:24;14.60;99.90
54192;DHT22;40101;53.002;6.488;2023-08-20T03:58:50;15.00;99.90
54192;DHT22;40101;53.002;6.488;2023-08-20T04:01:16;14.90;99.90
54192;DHT22;40101;53.002;6.488;2023-08-20T04:03:41;15.10;99.90
54192;DHT22;40101;53.002;6.488;2023-08-20T04:06:07;14.50;99.90
54192;DHT22;40101;53.002;6.488;2023-08-20T04:08:33;14.50;99.90
54192;DHT22;40101;53.002;6.488;2023-08-20T04:10:59;14.50;99.90
54192;DHT22;40101;53.002;6.488;2023-08-20T04:13:24;15.20;99.90
54192;DHT22;40101;53.002;6.488;2023-08-20T04:15:51;14.50;99.90
54192;DHT22;40101;53.002;6.488;2023-08-20T04:18:17;14.40;99.90
54192;DHT22;40101;53.002;6.488;2023-08-20T04:20:42;14.50;99.90
54192;DHT22;40101;53.002;6.488;2023-08-20T04:23:08;14.70;99.90
54192;DHT22;40101;53.002;6.488;2023-08-20T04:25:34;14.50;99.90
54192;DHT22;40101;53.002;6.488;2023-08-20T04:27:59;14.40;99.90
54192;DHT22;40101;53.002;6.488;2023-08-20T04:30:25;14.70;99.90
54192;DHT22;40101;53.002;6.488;2023-08-20T04:32:51;14.40;99.90
54192;DHT22;40101;53.002;6.488;2023-08-20T04:35:17;14.50;99.90
54192;DHT22;40101;53.002;6.488;2023-08-20T04:37:43;14.60;99.90
54192;DHT22;40101;53.002;6.488;2023-08-20T04:40:09;14.50;99.90
54192;DHT22;40101;53.002;6.488;2023-08-20T04:42:35;14.50;99.90
54192;DHT22;40101;53.002;6.488;2023-08-20T04:45:01;14.60;99.90
54192;DHT22;40101;53.002;6.488;2023-08-20T04:47:27;14.50;99.90
54192;DHT22;40101;53.002;6.488;2023-08-20T04:49:52;14.70;99.90
54192;DHT22;40101;53.002;6.488;2023-08-20T04:52:18;14.60;99.90
54192;DHT22;40101;53.002;6.488;2023-08-20T04:54:46;15.10;99.90
54192;DHT22;40101;53.002;6.488;2023-08-20T04:57:11;14.80;99.90
54192;DHT22;40101;53.002;6.488;2023-08-20T04:59:38;15.00;99.90
54192;DHT22;40101;53.002;6.488;2023-08-20T05:02:03;15.20;99.90
54192;DHT22;40101;53.002;6.488;2023-08-20T05:04:29;15.40;99.90
54192;DHT22;40101;53.002;6.488;2023-08-20T05:06:55;15.50;99.90
54192;DHT22;40101;53.002;6.488;2023-08-20T05:09:21;15.60;99.90
54192;DHT22;40101;53.002;6.488;2023-08-20T05:11:47;15.70;99.90
54192;DHT22;40101;53.002;6.488;2023-08-20T05:14:12;16.40;99.90
54192;DHT22;40101;53.002;6.488;2023-08-20T05:16:38;17.00;99.90
54192;DHT22;40101;53.002;6.488;2023-08-20T05:19:03;17.70;99.90
54192;DHT22;40101;53.002;6.488;2023-08-20T05:21:29;18.30;99.90
54192;DHT22;40101;53.002;6.488;2023-08-20T05:23:55;18.20;99.90
54192;DHT22;40101;53.002;6.488;2023-08-20T05:26:22;18.00;99.90
54192;DHT22;40101;53.002;6.488;2023-08-20T05:28:48;17.70;99.90
54192;DHT22;40101;53.002;6.488;2023-08-20T05:31:14;17.30;99.90
54192;DHT22;40101;53.002;6.488;2023-08-20T05:33:39;17.10;99.90
54192;DHT22;40101;53.002;6.488;2023-08-20T05:36:05;16.90;99.90
54192;DHT22;40101;53.002;6.488;2023-08-20T05:38:31;16.80;99.90
54192;DHT22;40101;53.002;6.488;2023-08-20T05:40:56;16.80;99.90
54192;DHT22;40101;53.002;6.488;2023-08-20T05:43:22;16.70;99.90
54192;DHT22;40101;53.002;6.488;2023-08-20T05:45:48;16.60;99.90
54192;DHT22;40101;53.002;6.488;2023-08-20T05:48:13;16.70;99.90
54192;DHT22;40101;53.002;6.488;2023-08-20T05:50:39;16.60;99.90
54192;DHT22;40101;53.002;6.488;2023-08-20T05:53:04;16.50;99.90
54192;DHT22;40101;53.002;6.488;2023-08-20T05:55:30;16.60;99.90
54192;DHT22;40101;53.002;6.488;2023-08-20T05:57:56;16.60;99.90
54192;DHT22;40101;53.002;6.488;2023-08-20T06:00:21;16.70;99.90
54192;DHT22;40101;53.002;6.488;2023-08-20T06:02:47;17.00;99.90
54192;DHT22;40101;53.002;6.488;2023-08-20T06:05:13;17.10;99.90
54192;DHT22;40101;53.002;6.488;2023-08-20T06:07:39;17.10;99.90
54192;DHT22;40101;53.002;6.488;2023-08-20T06:10:06;17.70;99.90
54192;DHT22;40101;53.002;6.488;2023-08-20T06:12:32;17.50;99.90
54192;DHT22;40101;53.002;6.488;2023-08-20T06:14:58;17.70;99.90
54192;DHT22;40101;53.002;6.488;2023-08-20T06:17:24;17.70;99.90
54192;DHT22;40101;53.002;6.488;2023-08-20T06:19:49;17.70;99.90
54192;DHT22;40101;53.002;6.488;2023-08-20T06:22:15;17.80;99.90
54192;DHT22;40101;53.002;6.488;2023-08-20T06:24:41;17.80;99.90
54192;DHT22;40101;53.002;6.488;2023-08-20T06:27:07;17.90;99.90
54192;DHT22;40101;53.002;6.488;2023-08-20T06:29:32;18.00;99.90
54192;DHT22;40101;53.002;6.488;2023-08-20T06:31:58;18.00;99.90
54192;DHT22;40101;53.002;6.488;2023-08-20T06:34:23;18.00;99.90
54192;DHT22;40101;53.002;6.488;2023-08-20T06:36:49;18.00;99.90
54192;DHT22;40101;53.002;6.488;2023-08-20T06:39:15;18.50;99.90
54192;DHT22;40101;53.002;6.488;2023-08-20T06:41:41;17.70;99.90
54192;DHT22;40101;53.002;6.488;2023-08-20T06:44:07;18.20;99.90
54192;DHT22;40101;53.002;6.488;2023-08-20T06:46:33;18.20;99.90
54192;DHT22;40101;53.002;6.488;2023-08-20T06:48:58;18.20;99.90
54192;DHT22;40101;53.002;6.488;2023-08-20T06:51:24;18.30;99.90
54192;DHT22;40101;53.002;6.488;2023-08-20T06:53:50;18.50;99.90
54192;DHT22;40101;53.002;6.488;2023-08-20T06:56:16;18.50;99.90
54192;DHT22;40101;53.002;6.488;2023-08-20T06:58:42;18.70;99.90
54192;DHT22;40101;53.002;6.488;2023-08-20T07:01:08;19.00;99.90
54192;DHT22;40101;53.002;6.488;2023-08-20T07:03:41;18.90;99.90
54192;DHT22;40101;53.002;6.488;2023-08-20T07:06:08;19.00;99.90
54192;DHT22;40101;53.002;6.488;2023-08-20T07:08:35;19.10;99.90
54192;DHT22;40101;53.002;6.488;2023-08-20T07:11:02;19.40;99.90
54192;DHT22;40101;53.002;6.488;2023-08-20T07:13:28;19.60;99.90
54192;DHT22;40101;53.002;6.488;2023-08-20T07:15:54;19.70;99.90
54192;DHT22;40101;53.002;6.488;2023-08-20T07:18:20;19.80;99.90
54192;DHT22;40101;53.002;6.488;2023-08-20T07:20:45;19.90;99.90
54192;DHT22;40101;53.002;6.488;2023-08-20T07:23:11;20.10;99.90
54192;DHT22;40101;53.002;6.488;2023-08-20T07:25:38;20.40;99.90
54192;DHT22;40101;53.002;6.488;2023-08-20T07:28:08;21.10;99.90
54192;DHT22;40101;53.002;6.488;2023-08-20T07:30:34;22.70;99.90
54192;DHT22;40101;53.002;6.488;2023-08-20T07:33:00;24.10;99.90
54192;DHT22;40101;53.002;6.488;2023-08-20T07:35:26;25.40;99.90
54192;DHT22;40101;53.002;6.488;2023-08-20T07:37:52;26.40;99.90
54192;DHT22;40101;53.002;6.488;2023-08-20T07:40:18;27.20;99.90
54192;DHT22;40101;53.002;6.488;2023-08-20T07:42:44;27.80;99.90
54192;DHT22;40101;53.002;6.488;2023-08-20T07:45:10;28.50;99.90
54192;DHT22;40101;53.002;6.488;2023-08-20T07:47:36;28.90;99.90
54192;DHT22;40101;53.002;6.488;2023-08-20T07:50:05;29.30;99.90
54192;DHT22;40101;53.002;6.488;2023-08-20T07:52:32;29.70;99.90
54192;DHT22;40101;53.002;6.488;2023-08-20T07:54:57;30.00;99.90
54192;DHT22;40101;53.002;6.488;2023-08-20T07:57:23;30.40;99.90
54192;DHT22;40101;53.002;6.488;2023-08-20T07:59:50;30.80;99.90
54192;DHT22;40101;53.002;6.488;2023-08-20T08:02:15;31.00;99.90
54192;DHT22;40101;53.002;6.488;2023-08-20T08:04:41;31.10;99.90
54192;DHT22;40101;53.002;6.488;2023-08-20T08:07:10;31.00;99.90
54192;DHT22;40101;53.002;6.488;2023-08-20T08:09:39;31.20;99.90
54192;DHT22;40101;53.002;6.488;2023-08-20T08:12:05;31.20;99.90
54192;DHT22;40101;53.002;6.488;2023-08-20T08:14:30;31.40;99.90
54192;DHT22;40101;53.002;6.488;2023-08-20T08:16:56;31.50;99.50
54192;DHT22;40101;53.002;6.488;2023-08-20T08:19:22;31.50;98.70
54192;DHT22;40101;53.002;6.488;2023-08-20T08:21:48;31.50;98.60
54192;DHT22;40101;53.002;6.488;2023-08-20T08:24:15;31.60;97.50
54192;DHT22;40101;53.002;6.488;2023-08-20T08:26:41;31.80;95.90
54192;DHT22;40101;53.002;6.488;2023-08-20T08:29:07;31.70;95.20
54192;DHT22;40101;53.002;6.488;2023-08-20T08:31:34;31.50;94.80
54192;DHT22;40101;53.002;6.488;2023-08-20T08:34:02;31.80;95.10
54192;DHT22;40101;53.002;6.488;2023-08-20T08:36:28;32.00;94.80
54192;DHT22;40101;53.002;6.488;2023-08-20T08:38:54;32.00;93.40
54192;DHT22;40101;53.002;6.488;2023-08-20T08:41:32;32.10;92.70
54192;DHT22;40101;53.002;6.488;2023-08-20T08:44:01;32.20;90.90
54192;DHT22;40101;53.002;6.488;2023-08-20T08:46:27;32.20;91.50
54192;DHT22;40101;53.002;6.488;2023-08-20T08:48:57;32.20;91.20
54192;DHT22;40101;53.002;6.488;2023-08-20T08:51:28;32.20;90.10
54192;DHT22;40101;53.002;6.488;2023-08-20T08:53:55;32.20;89.50
54192;DHT22;40101;53.002;6.488;2023-08-20T08:56:21;32.00;88.40
54192;DHT22;40101;53.002;6.488;2023-08-20T08:58:47;31.70;88.00
54192;DHT22;40101;53.002;6.488;2023-08-20T09:01:13;31.70;88.20
54192;DHT22;40101;53.002;6.488;2023-08-20T09:03:39;31.70;88.30
54192;DHT22;40101;53.002;6.488;2023-08-20T09:06:08;31.40;87.80
54192;DHT22;40101;53.002;6.488;2023-08-20T09:08:34;31.30;88.50
54192;DHT22;40101;53.002;6.488;2023-08-20T09:11:01;31.50;87.70
54192;DHT22;40101;53.002;6.488;2023-08-20T09:13:35;31.50;88.70
54192;DHT22;40101;53.002;6.488;2023-08-20T09:16:03;31.60;88.10
54192;DHT22;40101;53.002;6.488;2023-08-20T09:18:29;31.80;88.00
54192;DHT22;40101;53.002;6.488;2023-08-20T09:20:57;31.90;86.70
54192;DHT22;40101;53.002;6.488;2023-08-20T09:23:23;31.80;86.40
54192;DHT22;40101;53.002;6.488;2023-08-20T09:25:48;31.80;88.50
54192;DHT22;40101;53.002;6.488;2023-08-20T09:28:14;32.10;90.30
54192;DHT22;40101;53.002;6.488;2023-08-20T09:30:40;32.30;90.10
54192;DHT22;40101;53.002;6.488;2023-08-20T09:33:19;32.40;88.00
54192;DHT22;40101;53.002;6.488;2023-08-20T09:35:54;32.70;88.20
54192;DHT22;40101;53.002;6.488;2023-08-20T09:38:48;32.30;87.00
54192;DHT22;40101;53.002;6.488;2023-08-20T09:41:18;31.40;88.10
54192;DHT22;40101;53.002;6.488;2023-08-20T09:44:08;31.70;87.90
54192;DHT22;40101;53.002;6.488;2023-08-20T09:50:24;32.00;87.60
54192;DHT22;40101;53.002;6.488;2023-08-20T09:55:46;32.50;83.90
54192;DHT22;40101;53.002;6.488;2023-08-20T09:58:13;32.50;85.70
54192;DHT22;40101;53.002;6.488;2023-08-20T10:00:40;32.30;86.30
54192;DHT22;40101;53.002;6.488;2023-08-20T10:03:06;32.20;86.80
54192;DHT22;40101;53.002;6.488;2023-08-20T10:05:33;32.20;86.20
54192;DHT22;40101;53.002;6.488;2023-08-20T10:07:59;32.20;84.80
54192;DHT22;40101;53.002;6.488;2023-08-20T10:10:26;32.30;83.90
54192;DHT22;40101;53.002;6.488;2023-08-20T10:12:52;32.20;83.60
54192;DHT22;40101;53.002;6.488;2023-08-20T10:15:17;32.40;83.80
54192;DHT22;40101;53.002;6.488;2023-08-20T10:17:45;32.50;83.30
54192;DHT22;40101;53.002;6.488;2023-08-20T10:20:14;32.50;80.70
54192;DHT22;40101;53.002;6.488;2023-08-20T10:22:43;32.40;80.10
54192;DHT22;40101;53.002;6.488;2023-08-20T10:25:10;32.40;82.30
54192;DHT22;40101;53.002;6.488;2023-08-20T10:27:39;32.50;82.40
54192;DHT22;40101;53.002;6.488;2023-08-20T10:30:24;32.30;83.60
54192;DHT22;40101;53.002;6.488;2023-08-20T10:33:11;32.20;84.70
54192;DHT22;40101;53.002;6.488;2023-08-20T10:40:56;31.40;84.80
54192;DHT22;40101;53.002;6.488;2023-08-20T10:46:16;30.60;86.80
54192;DHT22;40101;53.002;6.488;2023-08-20T10:48:43;30.30;90.20
54192;DHT22;40101;53.002;6.488;2023-08-20T10:51:42;30.20;89.10
54192;DHT22;40101;53.002;6.488;2023-08-20T10:57:41;29.40;91.20
54192;DHT22;40101;53.002;6.488;2023-08-20T11:01:35;29.00;94.10
54192;DHT22;40101;53.002;6.488;2023-08-20T11:04:28;28.90;95.40
54192;DHT22;40101;53.002;6.488;2023-08-20T11:07:21;28.90;95.30
54192;DHT22;40101;53.002;6.488;2023-08-20T11:10:19;28.90;93.90
54192;DHT22;40101;53.002;6.488;2023-08-20T11:12:57;28.90;94.80
54192;DHT22;40101;53.002;6.488;2023-08-20T11:15:29;28.90;95.20
54192;DHT22;40101;53.002;6.488;2023-08-20T11:21:30;28.80;94.90
54192;DHT22;40101;53.002;6.488;2023-08-20T11:24:29;28.90;95.50
54192;DHT22;40101;53.002;6.488;2023-08-20T11:27:35;28.90;94.10
54192;DHT22;40101;53.002;6.488;2023-08-20T11:30:37;28.90;95.30
54192;DHT22;40101;53.002;6.488;2023-08-20T11:36:43;28.40;95.30
54192;DHT22;40101;53.002;6.488;2023-08-20T11:39:27;28.10;96.60
54192;DHT22;40101;53.002;6.488;2023-08-20T11:42:16;28.20;96.30
54192;DHT22;40101;53.002;6.488;2023-08-20T11:44:45;28.40;93.60
54192;DHT22;40101;53.002;6.488;2023-08-20T11:47:18;28.50;92.80
54192;DHT22;40101;53.002;6.488;2023-08-20T11:49:44;28.50;93.60
54192;DHT22;40101;53.002;6.488;2023-08-20T11:52:11;28.50;94.50
54192;DHT22;40101;53.002;6.488;2023-08-20T11:54:38;28.60;95.00
54192;DHT22;40101;53.002;6.488;2023-08-20T11:57:05;28.70;94.40
54192;DHT22;40101;53.002;6.488;2023-08-20T11:59:31;28.70;95.20
54192;DHT22;40101;53.002;6.488;2023-08-20T12:01:58;28.80;96.00
54192;DHT22;40101;53.002;6.488;2023-08-20T12:04:26;29.00;94.90
54192;DHT22;40101;53.002;6.488;2023-08-20T12:09:32;28.90;94.10
54192;DHT22;40101;53.002;6.488;2023-08-20T12:11:58;28.70;93.30
54192;DHT22;40101;53.002;6.488;2023-08-20T12:14:24;28.50;93.40
54192;DHT22;40101;53.002;6.488;2023-08-20T12:16:50;28.40;93.60
54192;DHT22;40101;53.002;6.488;2023-08-20T12:19:19;28.40;94.10
54192;DHT22;40101;53.002;6.488;2023-08-20T12:21:45;28.50;94.20
54192;DHT22;40101;53.002;6.488;2023-08-20T12:24:11;28.50;94.30
54192;DHT22;40101;53.002;6.488;2023-08-20T12:26:38;28.40;94.20
54192;DHT22;40101;53.002;6.488;2023-08-20T12:29:04;28.30;92.90
54192;DHT22;40101;53.002;6.488;2023-08-20T12:31:30;28.20;92.00
54192;DHT22;40101;53.002;6.488;2023-08-20T12:33:56;28.20;92.90
54192;DHT22;40101;53.002;6.488;2023-08-20T12:36:22;28.20;93.00
54192;DHT22;40101;53.002;6.488;2023-08-20T12:38:47;28.20;94.40
54192;DHT22;40101;53.002;6.488;2023-08-20T12:41:13;28.20;93.30
54192;DHT22;40101;53.002;6.488;2023-08-20T12:43:39;28.20;93.10
54192;DHT22;40101;53.002;6.488;2023-08-20T12:46:05;28.30;93.30
54192;DHT22;40101;53.002;6.488;2023-08-20T12:48:31;28.30;93.10
54192;DHT22;40101;53.002;6.488;2023-08-20T12:50:57;28.30;93.00
54192;DHT22;40101;53.002;6.488;2023-08-20T12:53:22;28.40;93.30
54192;DHT22;40101;53.002;6.488;2023-08-20T12:55:48;28.40;92.60
54192;DHT22;40101;53.002;6.488;2023-08-20T12:58:14;28.20;92.70
54192;DHT22;40101;53.002;6.488;2023-08-20T13:00:39;28.20;92.10
54192;DHT22;40101;53.002;6.488;2023-08-20T13:03:05;28.00;91.90
54192;DHT22;40101;53.002;6.488;2023-08-20T13:05:32;27.90;92.90
54192;DHT22;40101;53.002;6.488;2023-08-20T13:07:58;27.80;92.80
54192;DHT22;40101;53.002;6.488;2023-08-20T13:10:24;27.80;93.70
54192;DHT22;40101;53.002;6.488;2023-08-20T13:12:53;27.80;93.80
54192;DHT22;40101;53.002;6.488;2023-08-20T13:15:21;27.80;93.00
54192;DHT22;40101;53.002;6.488;2023-08-20T13:17:48;27.80;93.90
54192;DHT22;40101;53.002;6.488;2023-08-20T13:20:15;27.90;94.10
54192;DHT22;40101;53.002;6.488;2023-08-20T13:22:41;27.90;94.70
54192;DHT22;40101;53.002;6.488;2023-08-20T13:25:07;28.00;94.10
54192;DHT22;40101;53.002;6.488;2023-08-20T13:27:33;28.00;93.50
54192;DHT22;40101;53.002;6.488;2023-08-20T13:29:58;27.90;93.00
54192;DHT22;40101;53.002;6.488;2023-08-20T13:32:24;27.90;92.50
54192;DHT22;40101;53.002;6.488;2023-08-20T13:34:50;27.80;92.40
54192;DHT22;40101;53.002;6.488;2023-08-20T13:37:16;27.70;93.60
54192;DHT22;40101;53.002;6.488;2023-08-20T13:39:43;27.80;93.90
54192;DHT22;40101;53.002;6.488;2023-08-20T13:42:08;27.80;93.00
54192;DHT22;40101;53.002;6.488;2023-08-20T13:44:34;27.70;92.80
54192;DHT22;40101;53.002;6.488;2023-08-20T13:47:00;27.60;92.90
54192;DHT22;40101;53.002;6.488;2023-08-20T13:49:26;27.60;92.50
54192;DHT22;40101;53.002;6.488;2023-08-20T13:51:51;27.50;91.70
54192;DHT22;40101;53.002;6.488;2023-08-20T13:54:17;27.50;91.20
54192;DHT22;40101;53.002;6.488;2023-08-20T13:56:42;27.40;90.70
54192;DHT22;40101;53.002;6.488;2023-08-20T13:59:11;27.40;91.20
54192;DHT22;40101;53.002;6.488;2023-08-20T14:01:37;27.40;91.60
54192;DHT22;40101;53.002;6.488;2023-08-20T14:04:03;27.30;91.60
54192;DHT22;40101;53.002;6.488;2023-08-20T14:06:29;27.20;91.80
54192;DHT22;40101;53.002;6.488;2023-08-20T14:08:55;27.10;92.70
54192;DHT22;40101;53.002;6.488;2023-08-20T14:11:20;27.10;92.90
54192;DHT22;40101;53.002;6.488;2023-08-20T14:13:47;27.10;93.70
54192;DHT22;40101;53.002;6.488;2023-08-20T14:16:13;27.10;94.20
54192;DHT22;40101;53.002;6.488;2023-08-20T14:18:39;27.10;94.20
54192;DHT22;40101;53.002;6.488;2023-08-20T14:21:04;26.90;94.10
54192;DHT22;40101;53.002;6.488;2023-08-20T14:23:30;27.00;93.70
54192;DHT22;40101;53.002;6.488;2023-08-20T14:25:56;27.00;94.00
54192;DHT22;40101;53.002;6.488;2023-08-20T14:28:21;27.10;93.70
54192;DHT22;40101;53.002;6.488;2023-08-20T14:30:48;27.10;93.40
54192;DHT22;40101;53.002;6.488;2023-08-20T14:33:19;27.00;92.90
54192;DHT22;40101;53.002;6.488;2023-08-20T14:35:46;27.00;92.60
54192;DHT22;40101;53.002;6.488;2023-08-20T14:38:11;27.00;91.60
54192;DHT22;40101;53.002;6.488;2023-08-20T14:40:40;27.00;91.10
54192;DHT22;40101;53.002;6.488;2023-08-20T14:43:07;26.90;91.50
54192;DHT22;40101;53.002;6.488;2023-08-20T14:45:33;26.90;92.30
54192;DHT22;40101;53.002;6.488;2023-08-20T14:48:01;26.90;93.70
54192;DHT22;40101;53.002;6.488;2023-08-20T14:50:26;26.90;94.40
54192;DHT22;40101;53.002;6.488;2023-08-20T14:52:52;26.90;93.60
54192;DHT22;40101;53.002;6.488;2023-08-20T14:55:18;26.70;92.80
54192;DHT22;40101;53.002;6.488;2023-08-20T14:57:44;26.50;94.70
54192;DHT22;40101;53.002;6.488;2023-08-20T15:00:11;26.30;96.00
54192;DHT22;40101;53.002;6.488;2023-08-20T15:02:43;26.30;97.40
54192;DHT22;40101;53.002;6.488;2023-08-20T15:05:09;26.10;98.10
54192;DHT22;40101;53.002;6.488;2023-08-20T15:07:35;26.10;99.90
54192;DHT22;40101;53.002;6.488;2023-08-20T15:10:02;26.10;99.90
54192;DHT22;40101;53.002;6.488;2023-08-20T15:12:29;26.10;99.90
54192;DHT22;40101;53.002;6.488;2023-08-20T15:14:56;26.30;99.90
54192;DHT22;40101;53.002;6.488;2023-08-20T15:17:22;26.30;99.90
54192;DHT22;40101;53.002;6.488;2023-08-20T15:19:47;26.30;99.90
54192;DHT22;40101;53.002;6.488;2023-08-20T15:22:13;26.30;99.90
54192;DHT22;40101;53.002;6.488;2023-08-20T15:24:39;26.20;99.90
54192;DHT22;40101;53.002;6.488;2023-08-20T15:27:12;26.00;99.90
54192;DHT22;40101;53.002;6.488;2023-08-20T15:30:19;25.90;99.90
54192;DHT22;40101;53.002;6.488;2023-08-20T15:32:50;25.80;99.90
54192;DHT22;40101;53.002;6.488;2023-08-20T15:35:16;25.80;99.90
54192;DHT22;40101;53.002;6.488;2023-08-20T15:37:42;25.90;99.90
54192;DHT22;40101;53.002;6.488;2023-08-20T15:40:08;25.90;99.90
54192;DHT22;40101;53.002;6.488;2023-08-20T15:42:40;25.80;99.90
54192;DHT22;40101;53.002;6.488;2023-08-20T15:45:40;25.60;99.90
54192;DHT22;40101;53.002;6.488;2023-08-20T15:48:31;25.90;99.90
54192;DHT22;40101;53.002;6.488;2023-08-20T15:50:57;25.20;99.90
54192;DHT22;40101;53.002;6.488;2023-08-20T15:53:22;25.00;99.90
54192;DHT22;40101;53.002;6.488;2023-08-20T15:55:48;24.90;99.90
54192;DHT22;40101;53.002;6.488;2023-08-20T15:58:53;24.80;99.90
54192;DHT22;40101;53.002;6.488;2023-08-20T16:01:21;24.80;99.90
54192;DHT22;40101;53.002;6.488;2023-08-20T16:03:47;24.70;99.90
54192;DHT22;40101;53.002;6.488;2023-08-20T16:06:13;24.70;99.90
54192;DHT22;40101;53.002;6.488;2023-08-20T16:08:39;24.70;99.90
54192;DHT22;40101;53.002;6.488;2023-08-20T16:11:04;24.70;99.90
54192;DHT22;40101;53.002;6.488;2023-08-20T16:13:30;24.80;99.90